.
WxDataArchive / Data Records for 2014-09-22
2014-09-21 September 2014 2014-09-23

Data Records for Monday, 22 September 2014

Time	Temp	Chill	HIndex	Humid	Dewpt	 Wind 	HiWind	WindDir	Rain 	Barom
-----	----	-----	------	-----	-----	------	------	-------	-----	-----
00:00	52.2	52.2	52.2	76	44.9	2	5	292	0.00	30.050 
00:05	51.9	51.9	51.9	76	44.6	0	3	292	0.00	30.050 
00:10	51.6	51.6	51.6	74	43.6	1	6	338	0.00	30.050 
00:15	51.4	51.4	51.4	73	43.0	2	7	338	0.00	30.053 
00:20	51.1	51.1	51.1	73	42.7	1	4	315	0.00	30.053 
00:25	51.0	51.0	51.0	73	42.7	0	3	315	0.00	30.053 
00:30	50.7	50.7	50.7	73	42.4	0	4	315	0.00	30.055 
00:35	50.4	50.4	50.4	73	42.1	2	10	315	0.00	30.055 
00:40	50.4	50.4	50.4	72	41.7	2	6	292	0.00	30.055 
00:45	50.2	50.2	50.2	73	41.9	1	5	292	0.00	30.058 
00:50	49.9	49.9	49.9	73	41.6	0	3	292	0.00	30.058 
00:55	49.8	49.8	49.8	73	41.5	2	4	315	0.00	30.058 
01:00	49.6	49.6	49.6	74	41.7	1	4	270	0.00	30.066 
01:05	49.5	49.5	49.5	74	41.6	1	5	292	0.00	30.066 
01:10	49.4	49.4	49.4	73	41.1	2	5	292	0.00	30.066 
01:15	49.4	49.4	49.4	73	41.1	2	6	292	0.00	30.067 
01:20	49.2	49.2	49.2	73	40.9	1	4	292	0.00	30.067 
01:25	48.9	48.9	48.9	73	40.6	1	4	270	0.00	30.067 
01:30	48.8	48.8	48.8	74	40.9	1	5	338	0.00	30.072 
01:35	48.6	48.6	48.6	75	41.0	0	4	292	0.00	30.072 
01:40	48.3	48.3	48.3	75	40.7	0	2	292	0.00	30.072 
01:45	48.0	48.0	48.0	75	40.5	0	3	292	0.00	30.075 
01:50	47.9	47.9	47.9	75	40.4	1	5	292	0.00	30.075 
01:55	47.6	47.6	47.6	76	40.4	0	2	292	0.00	30.075 
02:00	47.4	47.4	47.4	77	40.6	0	1	292	0.00	30.076 
02:05	47.3	47.3	47.3	77	40.5	0	1	292	0.00	30.076 
02:10	47.1	47.1	47.1	78	40.6	0	1	292	0.00	30.076 
02:15	47.0	47.0	47.0	79	40.8	0	3	292	0.00	30.079 
02:20	46.8	46.8	46.8	79	40.6	0	3	292	0.00	30.079 
02:25	46.7	46.7	46.7	79	40.5	0	1	292	0.00	30.079 
02:30	46.5	46.5	46.5	80	40.7	0	3	292	0.00	30.080 
02:35	46.4	46.4	46.4	80	40.6	1	3	292	0.00	30.080 
02:40	46.4	46.4	46.4	80	40.6	0	2	292	0.00	30.080 
02:45	46.2	46.2	46.2	80	40.4	1	2	292	0.00	30.082 
02:50	46.1	46.1	46.1	80	40.3	0	1	292	0.00	30.082 
02:55	46.0	46.0	46.0	80	40.2	0	3	292	0.00	30.082 
03:00	46.0	46.0	46.0	80	40.2	0	1	292	0.00	30.078 
03:05	45.8	45.8	45.8	81	40.3	0	3	292	0.00	30.078 
03:10	45.8	45.8	45.8	81	40.3	0	3	292	0.00	30.078 
03:15	45.8	45.8	45.8	81	40.3	0	2	292	0.00	30.081 
03:20	45.7	45.7	45.7	81	40.2	0	1	292	0.00	30.081 
03:25	45.7	45.7	45.7	81	40.2	0	1	292	0.00	30.081 
03:30	45.5	45.5	45.5	81	40.0	0	3	292	0.00	30.079 
03:35	45.5	45.5	45.5	81	40.0	0	2	292	0.00	30.079 
03:40	45.7	45.7	45.7	82	40.5	0	2	292	0.00	30.079 
03:45	45.7	45.7	45.7	82	40.5	0	3	292	0.00	30.081 
03:50	45.7	45.7	45.7	82	40.5	0	2	292	0.00	30.081 
03:55	45.7	45.7	45.7	81	40.2	0	2	292	0.00	30.081 
04:00	45.7	45.7	45.7	82	40.5	0	2	292	0.00	30.082 
04:05	45.7	45.7	45.7	82	40.5	0	1	292	0.00	30.082 
04:10	45.5	45.5	45.5	82	40.3	0	3	292	0.00	30.082 
04:15	45.7	45.7	45.7	82	40.5	0	1	292	0.00	30.087 
04:20	45.7	45.7	45.7	82	40.5	0	3	292	0.00	30.087 
04:25	45.7	45.7	45.7	82	40.5	0	3	292	0.00	30.087 
04:30	45.7	45.7	45.7	81	40.2	0	4	292	0.00	30.092 
04:35	45.8	45.8	45.8	81	40.3	0	1	292	0.00	30.092 
04:40	45.8	45.8	45.8	81	40.3	0	1	292	0.00	30.092 
04:45	45.8	45.8	45.8	81	40.3	0	1	292	0.00	30.095 
04:50	46.0	46.0	46.0	81	40.5	0	1	292	0.00	30.095 
04:55	46.0	46.0	46.0	81	40.5	0	1	292	0.00	30.095 
05:00	46.1	46.1	46.1	81	40.6	0	2	292	0.00	30.106 
05:05	46.1	46.1	46.1	81	40.6	0	1	292	0.00	30.106 
05:10	46.2	46.2	46.2	81	40.7	0	2	292	0.00	30.106 
05:15	46.2	46.2	46.2	80	40.4	0	2	292	0.00	30.117 
05:20	46.2	46.2	46.2	81	40.7	0	1	292	0.00	30.117 
05:25	46.2	46.2	46.2	81	40.7	0	1	292	0.00	30.117 
05:30	46.2	46.2	46.2	81	40.7	0	3	292	0.00	30.124 
05:35	46.2	46.2	46.2	81	40.7	0	5	292	0.00	30.124 
05:40	46.2	46.2	46.2	77	39.4	1	6	315	0.00	30.124 
05:45	46.2	46.2	46.2	76	39.1	0	1	292	0.00	30.130 
05:50	46.2	46.2	46.2	74	38.4	1	4	270	0.00	30.130 
05:55	46.4	46.4	46.4	74	38.6	0	1	270	0.00	30.130 
06:00	46.4	46.4	46.4	75	38.9	0	1	270	0.00	30.136 
06:05	46.4	46.4	46.4	75	38.9	0	1	270	0.00	30.136 
06:10	46.4	46.4	46.4	74	38.6	0	2	270	0.00	30.136 
06:15	46.4	46.4	46.4	74	38.6	0	4	270	0.00	30.144 
06:20	46.4	46.4	46.4	73	38.2	0	6	158	0.00	30.144 
06:25	46.4	46.4	46.4	72	37.9	0	4	158	0.00	30.144 
06:30	46.4	46.4	46.4	71	37.5	1	4	292	0.00	30.146 
06:35	46.4	46.4	46.4	72	37.9	0	1	292	0.00	30.146 
06:40	46.4	46.4	46.4	72	37.9	0	2	315	0.00	30.146 
06:45	46.4	46.4	46.4	72	37.9	0	2	315	0.00	30.145 
06:50	46.4	46.4	46.4	72	37.9	0	1	315	0.00	30.145 
06:55	46.4	46.4	46.4	71	37.5	0	4	315	0.00	30.145 
07:00	46.4	46.4	46.4	71	37.5	0	3	315	0.00	30.157 
07:05	46.4	46.4	46.4	71	37.5	0	1	315	0.00	30.157 
07:10	46.4	46.4	46.4	72	37.9	0	3	315	0.00	30.157 
07:15	46.4	46.4	46.4	71	37.5	0	2	315	0.00	30.162 
07:20	46.4	46.4	46.4	71	37.5	0	1	315	0.00	30.162 
07:25	46.4	46.4	46.4	72	37.9	0	1	315	0.00	30.162 
07:30	46.4	46.4	46.4	72	37.9	0	2	315	0.00	30.164 
07:35	46.2	46.2	46.2	71	37.3	0	2	315	0.00	30.164 
07:40	46.2	46.2	46.2	71	37.3	0	1	315	0.00	30.164 
07:45	46.4	46.4	46.4	72	37.9	0	1	315	0.00	30.171 
07:50	46.2	46.2	46.2	71	37.3	0	2	45	0.00	30.171 
07:55	46.2	46.2	46.2	72	37.7	0	2	45	0.00	30.171 
08:00	46.2	46.2	46.2	72	37.7	0	2	45	0.00	30.179 
08:05	46.4	46.4	46.4	72	37.9	0	4	45	0.00	30.179 
08:10	46.4	46.4	46.4	71	37.5	0	1	45	0.00	30.179 
08:15	46.4	46.4	46.4	72	37.9	0	1	45	0.00	30.186 
08:20	46.4	46.4	46.4	72	37.9	1	4	45	0.00	30.186 
08:25	46.4	46.4	46.4	72	37.9	0	3	45	0.00	30.186 
08:30	46.5	46.5	46.5	71	37.6	0	3	45	0.00	30.194 
08:35	46.5	46.5	46.5	71	37.6	0	2	45	0.00	30.194 
08:40	46.7	46.7	46.7	71	37.8	0	2	22	0.00	30.194 
08:45	46.8	46.8	46.8	71	37.9	0	1	22	0.00	30.197 
08:50	47.0	47.0	47.0	71	38.1	0	2	22	0.00	30.197 
08:55	47.0	47.0	47.0	70	37.7	0	2	22	0.00	30.197 
09:00	47.1	47.1	47.1	69	37.5	1	4	315	0.00	30.202 
09:05	47.1	47.1	47.1	69	37.5	1	4	315	0.00	30.202 
09:10	47.3	47.3	47.3	70	38.0	0	3	315	0.00	30.202 
09:15	47.6	47.6	47.6	71	38.7	0	2	315	0.00	30.209 
09:20	47.7	47.7	47.7	70	38.4	0	0	---	0.00	30.209 
09:25	47.9	47.9	47.9	69	38.2	0	2	315	0.00	30.209 
09:30	48.0	48.0	48.0	70	38.7	0	1	315	0.00	30.215 
09:35	48.2	48.2	48.2	70	38.9	0	1	315	0.00	30.215 
09:40	48.5	48.5	48.5	70	39.2	0	1	315	0.00	30.215 
09:45	48.6	48.6	48.6	68	38.5	0	4	135	0.00	30.221 
09:50	48.9	48.9	48.9	66	38.0	1	2	135	0.00	30.221 
09:55	49.2	49.2	49.2	66	38.3	1	6	248	0.00	30.221 
10:00	49.6	49.6	49.6	66	38.7	1	3	112	0.00	30.223 
10:05	49.9	49.9	49.9	65	38.6	0	1	112	0.00	30.223 
10:10	49.8	49.8	49.8	64	38.1	1	4	112	0.00	30.223 
10:15	50.1	50.1	50.1	66	39.2	0	3	202	0.00	30.225 
10:20	50.5	50.5	50.5	66	39.6	0	2	202	0.00	30.225 
10:25	50.8	50.8	50.8	63	38.7	1	4	202	0.00	30.225 
10:30	51.3	51.3	51.3	64	39.5	1	3	315	0.00	30.230 
10:35	52.0	52.0	52.0	66	41.0	0	3	0	0.00	30.230 
10:40	52.0	52.0	52.0	62	39.4	1	5	338	0.00	30.230 
10:45	52.5	52.5	52.5	62	39.9	1	4	338	0.00	30.231 
10:50	52.6	52.6	52.6	60	39.1	1	3	112	0.00	30.231 
10:55	52.9	52.9	52.9	61	39.8	1	3	338	0.00	30.231 
11:00	52.8	52.8	52.8	61	39.7	1	3	338	0.00	30.233 
11:05	52.8	52.8	52.8	59	38.9	1	3	338	0.00	30.233 
11:10	53.2	53.2	53.2	61	40.1	1	3	338	0.00	30.233 
11:15	53.2	53.2	53.2	59	39.2	2	4	292	0.00	30.237 
11:20	53.3	53.3	53.3	61	40.2	1	3	292	0.00	30.237 
11:25	53.5	53.5	53.5	59	39.5	1	3	292	0.00	30.237 
11:30	53.5	53.5	53.5	58	39.1	1	4	292	0.00	30.227 
11:35	53.6	53.6	53.6	59	39.6	1	3	292	0.00	30.227 
11:40	54.1	54.1	54.1	59	40.1	0	2	292	0.00	30.227 
11:45	54.5	54.5	54.5	59	40.5	1	4	292	0.00	30.230 
11:50	54.7	54.7	54.7	56	39.3	1	3	292	0.00	30.230 
11:55	54.5	54.5	54.5	57	39.6	1	4	292	0.00	30.230 
12:00	54.7	54.7	54.7	58	40.2	0	2	292	0.00	30.232 
12:05	55.1	55.1	55.1	57	40.1	1	3	292	0.00	30.232 
12:10	55.4	55.4	55.4	58	40.9	1	3	292	0.00	30.232 
12:15	55.7	55.7	55.7	59	41.6	1	4	292	0.00	30.235 
12:20	55.9	55.9	55.9	57	40.9	1	3	292	0.00	30.235 
12:25	55.9	55.9	55.9	57	40.9	0	3	292	0.00	30.235 
12:30	56.2	56.2	56.2	55	40.2	2	5	270	0.00	30.236 
12:35	56.2	56.2	56.2	55	40.2	1	4	270	0.00	30.236 
12:40	56.3	56.3	56.3	54	39.9	1	3	270	0.00	30.236 
12:45	56.6	56.6	56.6	54	40.1	1	4	270	0.00	30.237 
12:50	56.9	56.9	56.9	55	40.9	0	2	270	0.00	30.237 
12:55	57.5	57.5	57.5	55	41.5	0	3	270	0.00	30.237 
13:00	57.6	57.6	57.6	54	41.1	1	4	270	0.00	30.234 
13:05	58.1	58.1	58.1	57	42.9	0	1	270	0.00	30.234 
13:10	58.1	58.1	58.1	51	40.1	1	3	270	0.00	30.234 
13:15	58.3	58.3	58.3	54	41.7	1	4	270	0.00	30.231 
13:20	58.4	58.4	58.4	51	40.3	1	4	270	0.00	30.231 
13:25	58.3	58.3	58.3	56	42.7	0	2	270	0.00	30.231 
13:30	58.6	58.6	58.6	54	42.0	0	4	270	0.00	30.225 
13:35	58.9	58.9	58.9	50	40.3	2	4	270	0.00	30.225 
13:40	59.0	59.0	59.0	50	40.4	1	6	270	0.00	30.225 
13:45	59.0	59.0	59.0	53	41.9	0	2	270	0.00	30.221 
13:50	59.2	59.2	59.2	50	40.6	2	5	270	0.00	30.221 
13:55	59.3	59.3	59.3	51	41.2	2	4	292	0.00	30.221 
14:00	59.8	59.8	59.8	51	41.6	1	2	292	0.00	30.219 
14:05	60.1	60.1	60.1	50	41.4	1	5	292	0.00	30.219 
14:10	60.2	60.2	60.2	50	41.5	2	4	292	0.00	30.219 
14:15	60.1	60.1	60.1	50	41.4	1	3	292	0.00	30.217 
14:20	60.1	60.1	60.1	48	40.3	2	7	292	0.00	30.217 
14:25	60.1	60.1	60.1	50	41.4	2	4	338	0.00	30.217 
14:30	60.1	60.1	60.1	49	40.9	1	7	338	0.00	30.213 
14:35	60.4	60.4	60.4	48	40.6	1	5	315	0.00	30.213 
14:40	60.5	60.5	60.5	48	40.7	2	5	338	0.00	30.213 
14:45	60.5	60.5	60.5	48	40.7	1	3	338	0.00	30.209 
14:50	60.9	60.9	60.9	47	40.5	1	3	338	0.00	30.209 
14:55	61.2	61.2	61.2	48	41.3	2	4	338	0.00	30.209 
15:00	61.3	61.3	61.3	46	40.3	1	4	292	0.00	30.208 
15:05	61.5	61.5	61.5	46	40.5	1	4	292	0.00	30.208 
15:10	61.5	61.5	61.5	45	40.0	1	3	292	0.00	30.208 
15:15	61.8	61.8	61.8	45	40.2	2	5	338	0.00	30.204 
15:20	62.0	62.0	62.0	47	41.5	0	3	338	0.00	30.204 
15:25	62.0	62.0	62.0	46	41.0	1	3	338	0.00	30.204 
15:30	62.1	62.1	62.1	44	39.9	2	4	338	0.00	30.203 
15:35	62.6	62.6	62.6	45	41.0	2	4	292	0.00	30.203 
15:40	62.7	62.7	62.7	45	41.0	1	3	292	0.00	30.203 
15:45	63.1	63.1	63.1	45	41.4	0	2	292	0.00	30.201 
15:50	63.1	63.1	63.1	46	42.0	1	3	292	0.00	30.201 
15:55	63.4	63.4	63.4	43	40.5	1	3	292	0.00	30.201 
16:00	63.1	63.1	63.1	41	39.0	2	4	292	0.00	30.202 
16:05	62.7	62.7	62.7	43	39.9	0	3	292	0.00	30.202 
16:10	62.7	62.7	62.7	43	39.9	1	4	292	0.00	30.202 
16:15	62.7	62.7	62.7	45	41.0	0	2	292	0.00	30.200 
16:20	62.7	62.7	62.7	44	40.5	1	3	292	0.00	30.200 
16:25	62.9	62.9	62.9	45	41.2	0	1	292	0.00	30.200 
16:30	63.1	63.1	63.1	45	41.4	2	5	292	0.00	30.198 
16:35	63.2	63.2	63.2	43	40.3	1	3	292	0.00	30.198 
16:40	63.1	63.1	63.1	44	40.8	1	3	292	0.00	30.198 
16:45	63.1	63.1	63.1	46	42.0	1	3	292	0.00	30.192 
16:50	63.2	63.2	63.2	46	42.1	1	3	292	0.00	30.192 
16:55	63.2	63.2	63.2	44	40.9	1	3	292	0.00	30.192 
17:00	63.4	63.4	63.4	47	42.8	0	3	292	0.00	30.188 
17:05	63.4	63.4	63.4	46	42.3	1	4	292	0.00	30.188 
17:10	63.5	63.5	63.5	43	40.6	1	4	292	0.00	30.188 
17:15	63.5	63.5	63.5	45	41.8	0	3	292	0.00	30.187 
17:20	63.7	63.7	63.7	45	42.0	1	5	292	0.00	30.187 
17:25	63.5	63.5	63.5	44	41.2	0	2	292	0.00	30.187 
17:30	63.4	63.4	63.4	46	42.3	1	2	292	0.00	30.189 
17:35	63.5	63.5	63.5	47	42.9	0	3	292	0.00	30.189 
17:40	63.5	63.5	63.5	44	41.2	1	5	292	0.00	30.189 
17:45	63.5	63.5	63.5	44	41.2	1	3	292	0.00	30.189 
17:50	63.5	63.5	63.5	44	41.2	1	3	292	0.00	30.189 
17:55	63.5	63.5	63.5	45	41.8	1	2	292	0.00	30.189 
18:00	63.5	63.5	63.5	43	40.6	1	3	292	0.00	30.188 
18:05	63.4	63.4	63.4	45	41.7	1	4	292	0.00	30.188 
18:10	63.2	63.2	63.2	47	42.6	0	1	292	0.00	30.188 
18:15	63.2	63.2	63.2	46	42.1	0	2	292	0.00	30.193 
18:20	63.1	63.1	63.1	46	42.0	1	3	292	0.00	30.193 
18:25	63.1	63.1	63.1	46	42.0	1	3	292	0.00	30.193 
18:30	62.9	62.9	62.9	47	42.4	1	3	292	0.00	30.195 
18:35	62.7	62.7	62.7	49	43.3	0	1	292	0.00	30.195 
18:40	62.6	62.6	62.6	48	42.6	0	2	292	0.00	30.195 
18:45	62.3	62.3	62.3	46	41.3	1	3	292	0.00	30.197 
18:50	62.3	62.3	62.3	48	42.4	0	2	292	0.00	30.197 
18:55	62.1	62.1	62.1	48	42.2	0	1	292	0.00	30.197 
19:00	61.8	61.8	61.8	49	42.4	0	1	292	0.00	30.201 
19:05	61.6	61.6	61.6	49	42.3	0	4	292	0.00	30.201 
19:10	61.5	61.5	61.5	50	42.7	0	1	292	0.00	30.201 
19:15	61.3	61.3	61.3	51	43.0	0	0	---	0.00	30.202 
19:20	61.0	61.0	61.0	51	42.7	0	1	292	0.00	30.202 
19:25	60.7	60.7	60.7	52	43.0	0	0	---	0.00	30.202 
19:30	60.4	60.4	60.4	53	43.2	0	0	---	0.00	30.205 
19:35	60.1	60.1	60.1	56	44.3	0	0	---	0.00	30.205 
19:40	59.6	59.6	59.6	57	44.3	0	0	---	0.00	30.205 
19:45	59.2	59.2	59.2	58	44.4	0	0	---	0.00	30.208 
19:50	58.6	58.6	58.6	60	44.8	0	0	---	0.00	30.208 
19:55	58.0	58.0	58.0	62	45.1	0	0	---	0.00	30.208 
20:00	57.3	57.3	57.3	63	44.8	0	0	---	0.00	30.207 
20:05	56.6	56.6	56.6	65	45.0	0	0	---	0.00	30.207 
20:10	56.2	56.2	56.2	66	45.0	0	0	---	0.00	30.207 
20:15	55.7	55.7	55.7	68	45.3	0	0	---	0.00	30.216 
20:20	55.3	55.3	55.3	70	45.7	0	0	---	0.00	30.216 
20:25	54.8	54.8	54.8	71	45.6	0	0	---	0.00	30.216 
20:30	54.4	54.4	54.4	73	45.9	0	0	---	0.00	30.223 
20:35	54.1	54.1	54.1	74	46.0	0	0	---	0.00	30.223 
20:40	53.6	53.6	53.6	76	46.2	0	0	---	0.00	30.223 
20:45	53.3	53.3	53.3	76	45.9	0	0	---	0.00	30.226 
20:50	53.1	53.1	53.1	77	46.1	0	0	---	0.00	30.226 
20:55	52.8	52.8	52.8	78	46.1	0	0	---	0.00	30.226 
21:00	52.5	52.5	52.5	79	46.2	0	0	---	0.00	30.235 
21:05	52.3	52.3	52.3	80	46.3	0	0	---	0.00	30.235 
21:10	52.0	52.0	52.0	81	46.4	0	0	---	0.00	30.235 
21:15	51.9	51.9	51.9	81	46.3	0	0	---	0.00	30.238 
21:20	51.6	51.6	51.6	82	46.3	0	0	---	0.00	30.238 
21:25	51.4	51.4	51.4	82	46.1	0	0	---	0.00	30.238 
21:30	51.3	51.3	51.3	83	46.3	0	0	---	0.00	30.242 
21:35	51.1	51.1	51.1	83	46.1	0	0	---	0.00	30.242 
21:40	51.0	51.0	51.0	83	46.0	0	0	---	0.00	30.242 
21:45	51.0	51.0	51.0	83	46.0	0	0	---	0.00	30.244 
21:50	51.0	51.0	51.0	83	46.0	0	0	---	0.00	30.244 
21:55	51.3	51.3	51.3	83	46.3	0	0	---	0.00	30.244 
22:00	51.7	51.7	51.7	82	46.4	0	0	---	0.00	30.247 
22:05	52.0	52.0	52.0	81	46.4	0	0	---	0.00	30.247 
22:10	52.3	52.3	52.3	80	46.3	0	0	---	0.00	30.247 
22:15	52.5	52.5	52.5	80	46.5	0	0	---	0.00	30.250 
22:20	52.6	52.6	52.6	79	46.3	0	0	---	0.00	30.250 
22:25	52.6	52.6	52.6	79	46.3	0	0	---	0.00	30.250 
22:30	52.6	52.6	52.6	79	46.3	0	0	---	0.00	30.252 
22:35	52.5	52.5	52.5	79	46.2	0	0	---	0.00	30.252 
22:40	52.5	52.5	52.5	79	46.2	0	0	---	0.00	30.252 
22:45	52.3	52.3	52.3	80	46.3	0	0	---	0.00	30.257 
22:50	52.2	52.2	52.2	80	46.2	0	0	---	0.00	30.257 
22:55	52.2	52.2	52.2	80	46.2	0	0	---	0.00	30.257 
23:00	52.0	52.0	52.0	80	46.0	0	0	---	0.00	30.264 
23:05	51.7	51.7	51.7	81	46.1	0	0	---	0.00	30.264 
23:10	51.6	51.6	51.6	81	46.0	0	0	---	0.00	30.264 
23:15	51.4	51.4	51.4	81	45.8	0	0	---	0.00	30.264 
23:20	51.1	51.1	51.1	82	45.8	0	0	---	0.00	30.264 
23:25	50.8	50.8	50.8	82	45.5	0	0	---	0.00	30.264 
23:30	50.5	50.5	50.5	83	45.5	0	0	---	0.00	30.265 
23:35	50.4	50.4	50.4	83	45.4	0	0	---	0.00	30.265 
23:40	50.1	50.1	50.1	84	45.5	0	0	---	0.00	30.265 
23:45	49.8	49.8	49.8	84	45.2	0	0	---	0.00	30.268 
23:50	49.6	49.6	49.6	85	45.3	0	0	---	0.00	30.268 
23:55	49.4	49.4	49.4	85	45.1	0	0	---	0.00	30.268 

CoCoRaHS
IN-AL-39
A2 Web Hosting
Creative Commons License
GoDaddy
search engine by freefind advanced

loaded 2018-11-20 02:48:36 • last modified 2010-11-18 10:43:29
Privacy PolicyDisclaimer
• wx.awcolley.com is powered by PmWiki v.2002016 •
• all content (unless otherwise noted) © 2018 A W Colley